Time;durP1;ratioP1;P1;durP2;ratioP2;P2;SDS_P1;SDS_P2;PMS_P1;PMS_P2;Temp;Humidity;BMP_temperature;BMP_pressure;BME280_temperature;BME280_humidity;BME280_pressure;Samples;Min_cycle;Max_cycle;Signal;HPM_P1;HPM_P2
2020/12/02 00:00:35;;;;;;;86.03;39.30;;;3.10;96.70;;;;;;5032158;28;20060;-67
2020/12/02 00:03:27;;;;;;;86.63;39.45;;;3.10;96.70;;;;;;5032918;28;20733;-68
2020/12/02 00:05:55;;;;;;;74.13;35.95;;;3.10;96.60;;;;;;5063614;28;20032;-67
2020/12/02 00:08:34;;;;;;;80.35;39.38;;;3.00;96.50;;;;;;5031981;28;20751;-68
2020/12/02 00:11:03;;;;;;;87.07;38.03;;;3.00;96.40;;;;;;5031145;28;20124;-67
2020/12/02 00:13:32;;;;;;;84.93;38.80;;;3.00;96.40;;;;;;5032073;28;20510;-67
2020/12/02 00:15:59;;;;;;;86.97;38.97;;;3.00;96.40;;;;;;5031490;28;20388;-66
2020/12/02 00:18:25;;;;;;;86.10;39.63;;;3.00;96.50;;;;;;5030868;28;20187;-67
2020/12/02 00:20:51;;;;;;;81.55;39.35;;;3.00;96.50;;;;;;5030873;28;20109;-66
2020/12/02 00:23:17;;;;;;;87.60;38.83;;;3.00;96.60;;;;;;5032341;28;20029;-67
2020/12/02 00:25:43;;;;;;;84.47;38.92;;;3.00;96.50;;;;;;5028562;28;20256;-67
2020/12/02 00:28:11;;;;;;;87.93;39.03;;;3.00;96.50;;;;;;5031935;28;20568;-66
2020/12/02 00:30:37;;;;;;;91.45;38.90;;;3.00;96.60;;;;;;5032293;28;20442;-67
2020/12/02 00:33:12;;;;;;;93.63;39.92;;;2.90;96.60;;;;;;5030746;28;20492;-67
2020/12/02 00:35:38;;;;;;;94.18;40.83;;;3.00;96.70;;;;;;5061314;28;20500;-67
2020/12/02 00:38:06;;;;;;;83.57;38.70;;;2.90;96.70;;;;;;5054963;28;20104;-67
2020/12/02 00:40:32;;;;;;;95.85;40.72;;;2.90;96.70;;;;;;5049767;28;20558;-66
2020/12/02 00:42:58;;;;;;;95.93;41.47;;;2.90;96.80;;;;;;5055305;28;20093;-65
2020/12/02 00:45:24;;;;;;;97.03;41.75;;;2.90;96.80;;;;;;5049847;28;20481;-66
2020/12/02 00:47:50;;;;;;;94.07;41.38;;;2.90;96.80;;;;;;5058822;28;20111;-67
2020/12/02 00:50:18;;;;;;;89.50;39.67;;;2.90;96.80;;;;;;5051726;28;20028;-67
2020/12/02 00:53:01;;;;;;;89.45;39.15;;;2.90;96.80;;;;;;5066399;28;20028;-67
2020/12/02 00:55:26;;;;;;;93.93;39.28;;;2.90;96.90;;;;;;5054221;28;20025;-67
2020/12/02 00:57:53;;;;;;;87.40;40.08;;;2.90;96.90;;;;;;5089596;28;20055;-67
2020/12/02 01:00:19;;;;;;;76.72;37.60;;;2.80;96.80;;;;;;5050939;28;20048;-67
2020/12/02 01:03:05;;;;;;;84.93;37.85;;;2.80;96.80;;;;;;5066250;28;20059;-67
2020/12/02 01:05:31;;;;;;;94.13;41.03;;;2.90;96.80;;;;;;5062665;28;20106;-67
2020/12/02 01:08:17;;;;;;;87.78;39.40;;;2.90;96.80;;;;;;5081600;28;20072;-68
2020/12/02 01:10:44;;;;;;;85.43;38.33;;;2.90;96.80;;;;;;5055120;28;20107;-68
2020/12/02 01:13:10;;;;;;;98.03;41.13;;;2.90;96.80;;;;;;5065539;28;20489;-68
2020/12/02 01:15:36;;;;;;;94.82;41.00;;;2.90;96.90;;;;;;5061986;28;20067;-68
2020/12/02 01:18:25;;;;;;;87.85;40.25;;;2.90;96.90;;;;;;5061307;28;20040;-68
2020/12/02 01:21:28;;;;;;;84.93;39.45;;;2.90;96.90;;;;;;5059973;28;20036;-68
2020/12/02 01:23:59;;;;;;;91.32;40.53;;;2.90;96.80;;;;;;5060501;28;20144;-68
2020/12/02 01:26:33;;;;;;;90.80;40.85;;;2.90;96.90;;;;;;5065018;28;20028;-68
2020/12/02 01:29:04;;;;;;;96.43;41.42;;;2.90;96.90;;;;;;5068203;28;20028;-68
2020/12/02 01:31:29;;;;;;;92.73;40.10;;;2.90;96.90;;;;;;5063509;28;20028;-68
2020/12/02 01:33:55;;;;;;;86.53;39.85;;;2.80;96.90;;;;;;5067960;28;20305;-68
2020/12/02 01:36:27;;;;;;;90.43;39.33;;;2.80;96.90;;;;;;5093559;28;20028;-69
2020/12/02 01:38:54;;;;;;;85.32;39.08;;;2.80;96.90;;;;;;5063230;28;20031;-68
2020/12/02 01:41:21;;;;;;;83.93;39.58;;;2.80;96.90;;;;;;5057761;28;20114;-68
2020/12/02 01:43:49;;;;;;;82.43;37.97;;;2.80;96.90;;;;;;5065846;28;20035;-68
2020/12/02 01:46:32;;;;;;;84.43;37.13;;;2.80;96.90;;;;;;5062726;28;20037;-68
2020/12/02 01:49:33;;;;;;;85.65;39.35;;;2.80;96.90;;;;;;5047507;28;20044;-68
2020/12/02 01:52:17;;;;;;;89.15;37.75;;;2.80;96.90;;;;;;5052037;28;20044;-68
2020/12/02 01:54:54;;;;;;;77.82;37.90;;;2.90;97.00;;;;;;5046460;28;20071;-68
2020/12/02 01:57:33;;;;;;;87.70;39.30;;;2.80;97.00;;;;;;5086452;28;20132;-68
2020/12/02 02:00:18;;;;;;;84.28;38.55;;;2.80;97.00;;;;;;5067369;28;20518;-68
2020/12/02 02:03:15;;;;;;;89.20;38.88;;;2.80;97.00;;;;;;5058515;28;20067;-68
2020/12/02 02:05:59;;;;;;;88.75;38.05;;;2.80;97.00;;;;;;5046025;28;20178;-68
2020/12/02 02:08:30;;;;;;;83.38;38.22;;;2.80;97.00;;;;;;5046913;28;20040;-68
2020/12/02 02:10:59;;;;;;;80.93;37.13;;;2.80;97.00;;;;;;5069501;28;20074;-68
2020/12/02 02:13:46;;;;;;;90.60;39.00;;;2.80;97.00;;;;;;5046401;28;20044;-68
2020/12/02 02:16:26;;;;;;;85.70;39.25;;;2.80;97.00;;;;;;5060173;28;20017;-69
2020/12/02 02:18:52;;;;;;;88.15;39.28;;;2.80;97.00;;;;;;5063182;28;20051;-68
2020/12/02 02:21:35;;;;;;;87.50;40.38;;;2.80;97.00;;;;;;5055994;28;20474;-68
2020/12/02 02:24:01;;;;;;;82.53;38.10;;;2.80;97.00;;;;;;5047213;28;20099;-68
2020/12/02 02:26:33;;;;;;;88.50;39.45;;;2.80;97.00;;;;;;5053666;28;20028;-68
2020/12/02 02:29:14;;;;;;;80.10;36.88;;;2.80;97.00;;;;;;5046992;28;20097;-68
2020/12/02 02:31:56;;;;;;;84.55;38.83;;;2.80;97.00;;;;;;5055065;28;20033;-68
2020/12/02 02:34:23;;;;;;;85.13;38.35;;;2.80;97.00;;;;;;5063059;28;20459;-68
2020/12/02 02:36:48;;;;;;;82.38;38.08;;;2.80;97.00;;;;;;5051938;28;20053;-68
2020/12/02 02:39:15;;;;;;;77.07;37.00;;;2.80;97.00;;;;;;5093120;28;20498;-68
2020/12/02 02:41:41;;;;;;;86.40;38.35;;;2.80;97.00;;;;;;5063785;28;20107;-68
2020/12/02 02:44:10;;;;;;;83.32;38.58;;;2.80;97.00;;;;;;5065689;28;20028;-68
2020/12/02 02:46:36;;;;;;;84.25;38.42;;;2.80;97.00;;;;;;5059875;28;20166;-68
2020/12/02 02:49:03;;;;;;;86.00;38.20;;;2.80;97.00;;;;;;5046256;28;20063;-68
2020/12/02 02:51:28;;;;;;;84.00;38.97;;;2.70;97.00;;;;;;5055166;28;20153;-68
2020/12/02 02:53:54;;;;;;;84.50;37.30;;;2.80;97.00;;;;;;5051051;28;20465;-68
2020/12/02 02:56:20;;;;;;;85.90;39.13;;;2.80;96.90;;;;;;5046258;28;20025;-69
2020/12/02 02:58:46;;;;;;;84.15;37.47;;;2.80;97.00;;;;;;5060768;28;20305;-68
2020/12/02 03:01:12;;;;;;;73.97;37.35;;;2.80;97.00;;;;;;5062930;28;20250;-68
2020/12/02 03:03:37;;;;;;;80.38;37.40;;;2.80;96.90;;;;;;5058342;28;20471;-68
2020/12/02 03:06:06;;;;;;;90.82;38.85;;;2.80;97.00;;;;;;5061363;28;20037;-68
2020/12/02 03:08:32;;;;;;;75.85;35.58;;;2.80;96.90;;;;;;5049458;28;20039;-68
2020/12/02 03:11:01;;;;;;;77.22;35.72;;;2.70;96.90;;;;;;5062598;28;20379;-69
2020/12/02 03:13:47;;;;;;;85.93;38.13;;;2.70;96.80;;;;;;5062696;28;20314;-68
2020/12/02 03:16:24;;;;;;;80.97;37.13;;;2.80;96.80;;;;;;5056603;28;20036;-68
2020/12/02 03:18:53;;;;;;;76.13;36.88;;;2.80;96.90;;;;;;5060835;28;20125;-67
2020/12/02 03:21:21;;;;;;;76.75;36.15;;;2.70;96.80;;;;;;5057057;28;20024;-69
2020/12/02 03:23:48;;;;;;;76.45;36.30;;;2.80;96.80;;;;;;5057704;28;20044;-69
2020/12/02 03:26:14;;;;;;;82.82;37.28;;;2.70;96.80;;;;;;5062536;28;20070;-69
2020/12/02 03:28:40;;;;;;;85.97;37.33;;;2.70;96.80;;;;;;5045661;28;20369;-69
2020/12/02 03:31:11;;;;;;;82.68;37.92;;;2.80;96.80;;;;;;5044180;28;20258;-69
2020/12/02 03:33:37;;;;;;;84.60;38.38;;;2.80;96.90;;;;;;5045955;28;20063;-69
2020/12/02 03:36:02;;;;;;;83.20;37.95;;;2.70;96.90;;;;;;5045303;28;20098;-69
2020/12/02 03:38:28;;;;;;;79.25;35.88;;;2.70;96.90;;;;;;5061459;28;20453;-69
2020/12/02 03:40:54;;;;;;;77.80;36.60;;;2.70;96.90;;;;;;5057492;28;20021;-69
2020/12/02 03:43:19;;;;;;;81.55;35.90;;;2.70;96.90;;;;;;5094093;28;20055;-69
2020/12/02 03:45:45;;;;;;;80.32;36.20;;;2.70;96.90;;;;;;5062826;28;20356;-69
2020/12/02 03:48:15;;;;;;;78.38;36.22;;;2.70;96.90;;;;;;5049146;28;20452;-69
2020/12/02 03:50:42;;;;;;;77.30;36.55;;;2.70;96.80;;;;;;5050518;28;20063;-69
2020/12/02 03:53:08;;;;;;;71.07;35.03;;;2.70;96.80;;;;;;5050164;28;20451;-69
2020/12/02 03:55:34;;;;;;;76.15;36.33;;;2.70;96.80;;;;;;5044062;28;20025;-69
2020/12/02 03:58:00;;;;;;;74.25;35.83;;;2.70;96.90;;;;;;5055999;28;20032;-69
2020/12/02 04:00:26;;;;;;;78.72;37.35;;;2.70;96.90;;;;;;5060209;28;20025;-69
2020/12/02 04:02:53;;;;;;;74.63;35.38;;;2.70;96.80;;;;;;5054390;28;20059;-69
2020/12/02 04:05:18;;;;;;;70.82;34.72;;;2.70;96.90;;;;;;5063541;28;20100;-69
2020/12/02 04:07:44;;;;;;;76.30;36.03;;;2.70;96.80;;;;;;5049383;28;20029;-68
2020/12/02 04:10:10;;;;;;;77.55;35.33;;;2.60;96.80;;;;;;5061786;28;20364;-69
2020/12/02 04:12:36;;;;;;;76.80;35.90;;;2.60;96.80;;;;;;5054681;28;20043;-69
2020/12/02 04:15:02;;;;;;;79.07;36.47;;;2.60;96.80;;;;;;5060854;28;20132;-68
2020/12/02 04:17:27;;;;;;;73.95;36.13;;;2.60;96.90;;;;;;5089010;28;20398;-69
2020/12/02 04:19:53;;;;;;;79.78;36.55;;;2.60;96.90;;;;;;5052929;28;20029;-69
2020/12/02 04:22:19;;;;;;;78.57;36.60;;;2.60;96.90;;;;;;5062194;28;20040;-69
2020/12/02 04:24:44;;;;;;;83.50;36.78;;;2.60;96.90;;;;;;5057045;28;20121;-68
2020/12/02 04:27:10;;;;;;;75.22;35.78;;;2.60;96.90;;;;;;5058251;28;20139;-68
2020/12/02 04:29:35;;;;;;;85.07;36.88;;;2.60;96.90;;;;;;5050588;28;20131;-69
2020/12/02 04:32:04;;;;;;;83.30;36.30;;;2.60;96.90;;;;;;5055070;28;20605;-69
2020/12/02 04:34:30;;;;;;;73.30;36.97;;;2.60;96.90;;;;;;5063983;28;20055;-69
2020/12/02 04:36:56;;;;;;;71.85;37.10;;;2.60;96.90;;;;;;5056686;28;20432;-68
2020/12/02 04:39:21;;;;;;;73.18;34.65;;;2.60;96.90;;;;;;5044915;28;20017;-69
2020/12/02 04:41:47;;;;;;;74.88;36.83;;;2.60;96.80;;;;;;5043216;28;20036;-69
2020/12/02 04:44:13;;;;;;;76.28;36.42;;;2.60;96.70;;;;;;5062758;28;20025;-69
2020/12/02 04:46:39;;;;;;;68.68;34.58;;;2.60;96.80;;;;;;5063869;28;20427;-69
2020/12/02 04:49:32;;;;;;;75.22;36.00;;;2.60;96.80;;;;;;5061189;28;20066;-69
2020/12/02 04:52:12;;;;;;;73.63;34.47;;;2.60;96.70;;;;;;5061271;28;20082;-69
2020/12/02 04:54:38;;;;;;;72.63;34.58;;;2.60;96.70;;;;;;5043636;28;20377;-69
2020/12/02 04:57:04;;;;;;;75.15;35.92;;;2.60;96.80;;;;;;5042160;28;20043;-69
2020/12/02 04:59:43;;;;;;;74.18;35.63;;;2.60;96.70;;;;;;5043688;28;20347;-68
2020/12/02 05:02:23;;;;;;;71.25;35.58;;;2.60;96.70;;;;;;5041151;28;20067;-69
2020/12/02 05:04:57;;;;;;;76.28;36.60;;;2.60;96.80;;;;;;5062696;28;20102;-69
2020/12/02 05:07:27;;;;;;;75.05;35.05;;;2.60;96.70;;;;;;5057327;28;20518;-69
2020/12/02 05:10:12;;;;;;;76.65;36.15;;;2.60;96.80;;;;;;5064584;28;20027;-68
2020/12/02 05:12:41;;;;;;;75.30;35.70;;;2.60;96.80;;;;;;5057496;28;20035;-69
2020/12/02 05:15:28;;;;;;;71.03;35.65;;;2.60;96.80;;;;;;5064265;28;20016;-68
2020/12/02 05:18:11;;;;;;;71.75;35.47;;;2.60;96.80;;;;;;5054207;28;20028;-69
2020/12/02 05:20:38;;;;;;;68.13;33.25;;;2.60;96.80;;;;;;5044227;28;20116;-68
2020/12/02 05:23:20;;;;;;;77.63;36.92;;;2.60;96.80;;;;;;5043375;28;20558;-63
2020/12/02 05:25:46;;;;;;;69.53;34.05;;;2.60;96.80;;;;;;5063449;28;20037;-63
2020/12/02 05:28:28;;;;;;;75.72;36.67;;;2.60;96.80;;;;;;5056868;28;20085;-62
2020/12/02 05:31:22;;;;;;;69.43;35.40;;;2.60;96.80;;;;;;5057788;28;20025;-63
2020/12/02 05:33:49;;;;;;;75.40;35.90;;;2.60;96.80;;;;;;5060448;28;20261;-63
2020/12/02 05:36:16;;;;;;;77.15;34.40;;;2.60;96.80;;;;;;5065968;28;20029;-63
2020/12/02 05:39:02;;;;;;;80.65;36.03;;;2.60;96.90;;;;;;5051436;28;20068;-63
2020/12/02 05:41:29;;;;;;;71.55;34.97;;;2.60;96.90;;;;;;5050127;28;20046;-63
2020/12/02 05:44:13;;;;;;;68.85;35.72;;;2.60;96.90;;;;;;5064510;28;20162;-63
2020/12/02 05:46:47;;;;;;;67.72;33.50;;;2.60;96.80;;;;;;5052910;28;20024;-63
2020/12/02 05:49:17;;;;;;;72.70;34.55;;;2.50;96.70;;;;;;5061978;28;20051;-63
2020/12/02 05:51:45;;;;;;;66.88;32.55;;;2.60;96.70;;;;;;5066771;28;20473;-63
2020/12/02 05:54:26;;;;;;;66.90;35.65;;;2.50;96.60;;;;;;5051172;28;20029;-63
2020/12/02 05:56:52;;;;;;;67.78;35.67;;;2.60;96.60;;;;;;5046138;28;20036;-63
2020/12/02 05:59:18;;;;;;;76.30;34.53;;;2.60;96.70;;;;;;5054068;28;20047;-63
2020/12/02 06:01:45;;;;;;;67.35;34.90;;;2.60;96.70;;;;;;5054118;28;20432;-63
2020/12/02 06:04:14;;;;;;;77.43;36.25;;;2.60;96.80;;;;;;5055469;28;20370;-63
2020/12/02 06:06:40;;;;;;;64.63;33.08;;;2.60;96.80;;;;;;5050106;28;20203;-63
2020/12/02 06:09:06;;;;;;;72.47;34.72;;;2.60;96.80;;;;;;5059196;28;20104;-63
2020/12/02 06:11:36;;;;;;;65.50;32.70;;;2.60;96.80;;;;;;5065698;28;20040;-63
2020/12/02 06:14:13;;;;;;;69.95;34.17;;;2.60;96.80;;;;;;5064034;28;20108;-63
2020/12/02 06:16:45;;;;;;;70.25;34.00;;;2.60;96.80;;;;;;5066811;28;20395;-63
2020/12/02 06:19:43;;;;;;;64.78;33.00;;;2.60;96.70;;;;;;5058405;28;20024;-63
2020/12/02 06:22:09;;;;;;;67.57;33.47;;;2.60;96.70;;;;;;5061760;28;20033;-64
2020/12/02 06:24:47;;;;;;;71.15;33.83;;;2.60;96.70;;;;;;5063840;28;20432;-63
2020/12/02 06:27:15;;;;;;;73.80;33.15;;;2.60;96.70;;;;;;5060927;28;20027;-63
2020/12/02 06:29:43;;;;;;;76.40;34.35;;;2.60;96.70;;;;;;5059117;28;20119;-63
2020/12/02 06:32:15;;;;;;;72.35;35.00;;;2.60;96.80;;;;;;5051376;28;20024;-63
2020/12/02 06:34:41;;;;;;;69.10;33.85;;;2.60;96.70;;;;;;5058909;28;20553;-63
2020/12/02 06:37:26;;;;;;;69.38;33.63;;;2.60;96.60;;;;;;5062212;28;20339;-63
2020/12/02 06:39:59;;;;;;;66.70;33.88;;;2.60;96.60;;;;;;5053380;28;20453;-64
2020/12/02 06:42:41;;;;;;;65.55;33.53;;;2.60;96.70;;;;;;5050038;28;20032;-63
2020/12/02 06:45:31;;;;;;;71.30;34.63;;;2.50;96.60;;;;;;5062828;28;20028;-63
2020/12/02 06:48:24;;;;;;;66.13;33.38;;;2.50;96.60;;;;;;5047379;28;20025;-63
2020/12/02 06:50:56;;;;;;;74.85;35.28;;;2.50;96.60;;;;;;5058764;28;20163;-63
2020/12/02 06:53:21;;;;;;;72.82;35.30;;;2.60;96.60;;;;;;5049293;28;20028;-64
2020/12/02 06:55:49;;;;;;;70.95;34.85;;;2.60;96.60;;;;;;5044986;28;20799;-63
2020/12/02 06:58:17;;;;;;;66.53;32.97;;;2.50;96.60;;;;;;5052210;28;20099;-64
2020/12/02 07:00:51;;;;;;;68.55;34.03;;;2.60;96.70;;;;;;5049820;28;20306;-63
2020/12/02 07:03:28;;;;;;;60.45;32.13;;;2.50;96.60;;;;;;5049524;28;20045;-63
2020/12/02 07:06:08;;;;;;;65.47;32.28;;;2.50;96.60;;;;;;5051303;28;20505;-63
2020/12/02 07:08:36;;;;;;;75.47;34.33;;;2.60;96.60;;;;;;5059500;28;20058;-63
2020/12/02 07:11:21;;;;;;;66.57;33.83;;;2.50;96.60;;;;;;5051954;28;20511;-63
2020/12/02 07:13:49;;;;;;;70.88;34.50;;;2.60;96.60;;;;;;5053347;28;20340;-63
2020/12/02 07:16:33;;;;;;;75.28;35.08;;;2.50;96.60;;;;;;5046182;28;20028;-63
2020/12/02 07:19:01;;;;;;;69.03;34.15;;;2.50;96.60;;;;;;5061364;28;20103;-63
2020/12/02 07:21:48;;;;;;;70.22;32.70;;;2.50;96.60;;;;;;5048622;28;20033;-63
2020/12/02 07:24:22;;;;;;;76.13;35.05;;;2.50;96.60;;;;;;5050906;28;20029;-63
2020/12/02 07:26:49;;;;;;;64.10;32.90;;;2.60;96.60;;;;;;5054421;28;20329;-63
2020/12/02 07:29:22;;;;;;;64.65;32.80;;;2.50;96.60;;;;;;5050978;28;20166;-63
2020/12/02 07:31:58;;;;;;;63.70;33.58;;;2.60;96.60;;;;;;5051805;28;20051;-63
2020/12/02 07:34:25;;;;;;;68.75;33.08;;;2.50;96.50;;;;;;5056241;28;20032;-63
2020/12/02 07:37:00;;;;;;;59.35;32.70;;;2.50;96.50;;;;;;5060993;28;20143;-64
2020/12/02 07:39:27;;;;;;;61.83;32.88;;;2.50;96.50;;;;;;5062786;28;20072;-64
2020/12/02 07:42:22;;;;;;;66.60;33.33;;;2.60;96.50;;;;;;5051805;28;20388;-63
2020/12/02 07:45:00;;;;;;;62.88;31.38;;;2.60;96.50;;;;;;5046028;28;20033;-63
2020/12/02 07:47:26;;;;;;;66.35;33.88;;;2.60;96.40;;;;;;5051009;28;20057;-63
2020/12/02 07:50:21;;;;;;;60.17;31.30;;;2.50;96.30;;;;;;5064116;28;20075;-63
2020/12/02 07:52:52;;;;;;;58.75;30.63;;;2.50;96.30;;;;;;5046345;28;20058;-64
2020/12/02 07:55:30;;;;;;;59.67;32.00;;;2.50;96.20;;;;;;5051007;28;20075;-63
2020/12/02 07:57:57;;;;;;;59.10;31.00;;;2.60;96.20;;;;;;5049359;28;20042;-64
2020/12/02 08:00:37;;;;;;;62.13;33.35;;;2.50;96.20;;;;;;5051343;28;20211;-63
2020/12/02 08:03:03;;;;;;;65.97;32.03;;;2.60;96.20;;;;;;5042150;28;20431;-63
2020/12/02 08:05:48;;;;;;;65.47;33.00;;;2.60;96.30;;;;;;5047023;28;20036;-63
2020/12/02 08:08:13;;;;;;;62.90;30.85;;;2.60;96.30;;;;;;5057814;28;20025;-63
2020/12/02 08:10:39;;;;;;;53.75;31.35;;;2.60;96.20;;;;;;5047581;28;20044;-66
2020/12/02 08:13:23;;;;;;;54.58;29.48;;;2.60;96.00;;;;;;5055984;28;20093;-66
2020/12/02 08:15:54;;;;;;;59.75;30.67;;;2.60;95.80;;;;;;5047102;28;20448;-66
2020/12/02 08:18:29;;;;;;;58.40;31.15;;;2.60;95.70;;;;;;5046903;28;20033;-63
2020/12/02 08:21:08;;;;;;;60.85;30.13;;;2.60;95.90;;;;;;5053868;28;20122;-63
2020/12/02 08:23:36;;;;;;;51.58;29.88;;;2.60;95.90;;;;;;5044781;28;20036;-63
2020/12/02 08:26:23;;;;;;;53.22;29.48;;;2.60;95.80;;;;;;5064164;28;20032;-64
2020/12/02 08:28:51;;;;;;;57.78;30.05;;;2.60;95.80;;;;;;5051895;28;20403;-64
2020/12/02 08:31:26;;;;;;;55.55;29.65;;;2.60;95.90;;;;;;5055364;28;20033;-63
2020/12/02 08:34:10;;;;;;;54.15;30.05;;;2.60;95.80;;;;;;5063663;28;20032;-64
2020/12/02 08:36:37;;;;;;;51.33;30.15;;;2.60;95.90;;;;;;5048973;28;20024;-63
2020/12/02 08:39:04;;;;;;;57.20;29.15;;;2.70;96.00;;;;;;5063770;28;20032;-63
2020/12/02 08:41:46;;;;;;;51.55;28.60;;;2.70;96.00;;;;;;5062402;28;20037;-63
2020/12/02 08:44:15;;;;;;;55.53;28.92;;;2.60;95.90;;;;;;5051508;28;20036;-63
2020/12/02 08:46:56;;;;;;;53.78;29.33;;;2.70;95.80;;;;;;5046797;28;20448;-63
2020/12/02 08:49:30;;;;;;;61.75;30.42;;;2.70;95.70;;;;;;5064897;28;20035;-63
2020/12/02 08:51:57;;;;;;;54.42;30.05;;;2.70;95.70;;;;;;5057202;28;20029;-63
2020/12/02 08:54:24;;;;;;;61.17;30.10;;;2.70;95.70;;;;;;5064299;28;20044;-64
2020/12/02 08:56:51;;;;;;;57.67;30.40;;;2.70;95.90;;;;;;5059415;28;20100;-64
2020/12/02 08:59:17;;;;;;;55.78;29.30;;;2.70;95.80;;;;;;5044958;28;20148;-63
2020/12/02 09:01:43;;;;;;;58.95;28.85;;;2.70;96.00;;;;;;5041879;28;20065;-63
2020/12/02 09:04:09;;;;;;;50.67;29.92;;;2.80;95.90;;;;;;5076384;28;20051;-64
2020/12/02 09:06:35;;;;;;;51.50;29.27;;;2.80;95.90;;;;;;5048128;28;20051;-63
2020/12/02 09:09:01;;;;;;;58.00;29.63;;;2.70;95.70;;;;;;5064057;28;20098;-64
2020/12/02 09:11:31;;;;;;;59.55;30.13;;;2.80;95.80;;;;;;5060118;28;20059;-63
2020/12/02 09:13:57;;;;;;;49.22;28.23;;;2.80;95.70;;;;;;5060903;28;20487;-64
2020/12/02 09:16:28;;;;;;;51.30;29.45;;;2.80;95.70;;;;;;5065638;28;20028;-63
2020/12/02 09:18:54;;;;;;;51.58;29.42;;;2.80;95.60;;;;;;5061610;28;20046;-63
2020/12/02 09:21:22;;;;;;;49.92;28.50;;;2.80;95.70;;;;;;5066820;28;20040;-64
2020/12/02 09:23:47;;;;;;;54.72;28.40;;;2.80;95.70;;;;;;5066833;28;20036;-63
2020/12/02 09:26:18;;;;;;;54.55;29.90;;;2.80;95.60;;;;;;5059022;28;20550;-63
2020/12/02 09:28:44;;;;;;;46.75;27.08;;;2.80;95.70;;;;;;5046159;28;20032;-63
2020/12/02 09:31:10;;;;;;;47.45;27.17;;;2.80;95.60;;;;;;5051040;28;20024;-64
2020/12/02 09:33:35;;;;;;;51.03;28.52;;;2.80;95.40;;;;;;5063531;28;20101;-63
2020/12/02 09:36:01;;;;;;;50.35;27.75;;;2.80;95.70;;;;;;5064569;28;20356;-63
2020/12/02 09:38:27;;;;;;;53.20;29.05;;;2.80;95.60;;;;;;5058515;28;20040;-63
2020/12/02 09:40:53;;;;;;;50.58;29.08;;;2.80;95.70;;;;;;5063010;28;20016;-63
2020/12/02 09:43:25;;;;;;;53.42;29.05;;;2.80;95.60;;;;;;5047851;28;20511;-63
2020/12/02 09:46:28;;;;;;;54.38;28.83;;;2.90;95.70;;;;;;5052671;28;20407;-64
2020/12/02 09:48:53;;;;;;;46.58;26.63;;;2.90;95.60;;;;;;5060411;28;20028;-63
2020/12/02 09:51:25;;;;;;;46.22;27.10;;;2.90;95.30;;;;;;5066689;28;20024;-63
2020/12/02 09:53:53;;;;;;;52.85;29.88;;;2.80;95.30;;;;;;5062667;28;20415;-64
2020/12/02 09:56:19;;;;;;;52.15;28.88;;;2.80;95.20;;;;;;5055562;28;20353;-64
2020/12/02 09:58:45;;;;;;;51.60;27.95;;;2.80;95.30;;;;;;5060448;28;20085;-64
2020/12/02 10:01:40;;;;;;;53.03;29.58;;;2.90;95.30;;;;;;5058631;28;20058;-65
2020/12/02 10:04:34;;;;;;;47.78;28.50;;;2.90;95.30;;;;;;5047540;28;20032;-64
2020/12/02 10:07:25;;;;;;;51.88;28.80;;;3.00;95.30;;;;;;5052858;28;20040;-64
2020/12/02 10:09:50;;;;;;;53.05;29.92;;;2.90;94.80;;;;;;5063814;28;20047;-64
2020/12/02 10:12:53;;;;;;;48.92;29.35;;;3.00;95.30;;;;;;5056743;28;20028;-65
2020/12/02 10:16:05;;;;;;;53.50;29.35;;;3.00;95.50;;;;;;5054712;28;20174;-64
2020/12/02 10:18:46;;;;;;;50.10;28.27;;;3.00;95.30;;;;;;5042247;28;20033;-64
2020/12/02 10:21:37;;;;;;;53.05;29.63;;;2.90;94.60;;;;;;5046525;28;20110;-64
2020/12/02 10:24:13;;;;;;;;;;;3.00;95.20;;;;;;5066818;28;20406;-64
2020/12/02 10:27:07;;;;;;;49.83;29.80;;;3.00;95.10;;;;;;5055222;28;19908;-64
2020/12/02 10:29:56;;;;;;;48.17;29.23;;;3.10;95.20;;;;;;5046630;28;20033;-64
2020/12/02 10:32:41;;;;;;;50.08;28.30;;;3.10;94.80;;;;;;5062679;28;20029;-64
2020/12/02 10:35:09;;;;;;;49.70;28.90;;;3.00;94.80;;;;;;5061405;28;20027;-64
2020/12/02 10:37:40;;;;;;;48.03;27.50;;;3.00;94.40;;;;;;5060011;28;20028;-64
2020/12/02 10:40:07;;;;;;;;;;;2.90;94.60;;;;;;5055218;28;20474;-64
2020/12/02 10:42:32;;;;;;;48.97;28.35;;;3.00;94.60;;;;;;5055682;28;19913;-64
2020/12/02 10:45:11;;;;;;;46.40;28.05;;;3.00;94.50;;;;;;5046204;28;20368;-64
2020/12/02 10:47:51;;;;;;;45.97;28.15;;;3.00;94.60;;;;;;5055733;28;20522;-64
2020/12/02 10:50:20;;;;;;;47.80;27.80;;;3.00;94.40;;;;;;5058983;28;20021;-64
2020/12/02 10:52:49;;;;;;;43.47;26.17;;;3.10;94.30;;;;;;5058407;28;20053;-64
2020/12/02 10:55:17;;;;;;;48.03;28.95;;;3.10;94.40;;;;;;5051655;28;20029;-64
2020/12/02 10:57:43;;;;;;;44.47;26.95;;;3.10;94.50;;;;;;5044426;28;20055;-63
2020/12/02 11:00:14;;;;;;;46.60;28.17;;;3.10;94.00;;;;;;5058039;28;20407;-63
2020/12/02 11:02:40;;;;;;;;;;;3.00;94.00;;;;;;5062624;28;20017;-64
2020/12/02 11:05:07;;;;;;;48.47;29.13;;;3.10;94.30;;;;;;5063061;28;19915;-63
2020/12/02 11:07:45;;;;;;;52.08;29.17;;;3.10;94.20;;;;;;5059648;28;20040;-63
2020/12/02 11:10:26;;;;;;;49.58;28.08;;;3.20;94.40;;;;;;5043632;28;20050;-64
2020/12/02 11:13:16;;;;;;;51.55;28.33;;;3.20;94.20;;;;;;5054101;28;20128;-63
2020/12/02 11:15:48;;;;;;;47.75;28.63;;;3.20;94.20;;;;;;5057191;28;20103;-63
2020/12/02 11:18:38;;;;;;;44.47;27.23;;;3.20;94.00;;;;;;5060397;28;20033;-64
2020/12/02 11:21:09;;;;;;;42.38;25.55;;;3.20;93.70;;;;;;5047303;28;20021;-63
2020/12/02 11:23:35;;;;;;;45.97;27.40;;;3.20;93.60;;;;;;5055980;28;20514;-64
2020/12/02 11:26:03;;;;;;;48.35;27.75;;;3.10;93.50;;;;;;5049542;28;20024;-64
2020/12/02 11:28:29;;;;;;;46.42;27.65;;;3.20;94.00;;;;;;5058135;28;20155;-64
2020/12/02 11:31:02;;;;;;;47.22;27.20;;;3.10;93.70;;;;;;5057351;28;20139;-64
2020/12/02 11:34:08;;;;;;;43.45;26.38;;;3.20;94.00;;;;;;5061863;28;20028;-63
2020/12/02 11:36:57;;;;;;;48.80;26.02;;;3.20;93.70;;;;;;5049134;28;20035;-63
2020/12/02 11:39:45;;;;;;;43.60;26.77;;;3.20;93.60;;;;;;5055985;28;20097;-63
2020/12/02 11:42:29;;;;;;;46.58;26.80;;;3.20;93.80;;;;;;5056032;28;20455;-63
2020/12/02 11:45:10;;;;;;;45.80;26.70;;;3.20;93.60;;;;;;5052377;28;20109;-63
2020/12/02 11:48:17;;;;;;;48.28;27.80;;;3.20;93.60;;;;;;5044761;28;20025;-63
2020/12/02 11:50:58;;;;;;;42.17;26.63;;;3.30;94.00;;;;;;5051350;28;20030;-64
2020/12/02 11:53:23;;;;;;;;;;;3.30;93.90;;;;;;5048006;28;20055;-64
2020/12/02 11:55:50;;;;;;;42.58;26.05;;;3.20;93.70;;;;;;5045263;28;19970;-65
2020/12/02 11:58:17;;;;;;;45.45;26.88;;;3.20;93.70;;;;;;5052229;28;20119;-63
2020/12/02 12:00:43;;;;;;;44.70;27.70;;;3.10;93.60;;;;;;5055700;28;20025;-63
2020/12/02 12:03:11;;;;;;;44.10;26.63;;;3.20;93.70;;;;;;5056564;28;20033;-63
2020/12/02 12:05:59;;;;;;;44.28;26.75;;;3.10;93.40;;;;;;5056080;28;20098;-64
2020/12/02 12:09:02;;;;;;;44.25;27.58;;;3.10;93.60;;;;;;5048738;28;20448;-63
2020/12/02 12:11:37;;;;;;;45.90;27.92;;;3.20;93.80;;;;;;5047614;28;20654;-64
2020/12/02 12:14:08;;;;;;;46.35;28.30;;;3.10;93.60;;;;;;5049680;28;20028;-63
2020/12/02 12:16:39;;;;;;;;;;;3.20;93.60;;;;;;5058720;28;20029;-66
2020/12/02 12:19:14;;;;;;;;;;;3.20;93.50;;;;;;5059474;28;20016;-66
2020/12/02 12:22:05;;;;;;;47.60;27.83;;;3.20;93.90;;;;;;5055642;28;19917;-63
2020/12/02 12:24:31;;;;;;;41.45;25.48;;;3.20;94.00;;;;;;5050646;28;20029;-63
2020/12/02 12:26:56;;;;;;;46.70;28.02;;;3.20;93.30;;;;;;5060603;28;20029;-63
2020/12/02 12:29:22;;;;;;;44.95;27.27;;;3.20;93.60;;;;;;5047482;28;20055;-63
2020/12/02 12:32:03;;;;;;;46.83;26.77;;;3.10;93.50;;;;;;5047830;28;20036;-63
2020/12/02 12:34:56;;;;;;;43.75;26.83;;;3.20;93.50;;;;;;5061391;28;20039;-63
2020/12/02 12:37:38;;;;;;;44.33;26.95;;;3.20;93.70;;;;;;5055782;28;20036;-63
2020/12/02 12:40:10;;;;;;;;;;;3.20;93.40;;;;;;5061195;28;20175;-63
2020/12/02 12:42:38;;;;;;;46.95;25.23;;;3.10;93.30;;;;;;5061380;28;20698;-63
2020/12/02 12:45:11;;;;;;;45.10;27.02;;;3.10;93.70;;;;;;5064892;28;20143;-63
2020/12/02 12:47:39;;;;;;;41.53;26.00;;;3.10;93.70;;;;;;5063280;28;20166;-62
2020/12/02 12:50:07;;;;;;;45.50;27.15;;;3.10;93.60;;;;;;5066043;28;20025;-62
2020/12/02 12:52:35;;;;;;;42.92;26.42;;;3.20;93.60;;;;;;5063482;28;20037;-62
2020/12/02 12:55:01;;;;;;;48.88;27.58;;;3.30;93.80;;;;;;5048788;28;20063;-62
2020/12/02 12:57:29;;;;;;;42.17;27.00;;;3.20;93.90;;;;;;5047311;28;20092;-62
2020/12/02 13:00:07;;;;;;;41.45;26.80;;;3.20;93.70;;;;;;5007012;28;20111;-62
2020/12/02 13:02:35;;;;;;;45.00;26.55;;;3.20;93.20;;;;;;5050862;28;20034;-62
2020/12/02 13:05:01;;;;;;;41.55;25.52;;;3.20;93.80;;;;;;5035111;28;20539;-62
2020/12/02 13:07:50;;;;;;;46.22;26.67;;;3.20;93.40;;;;;;5037119;28;20526;-65